Time;durP1;ratioP1;P1;durP2;ratioP2;P2;SDS_P1;SDS_P2;PMS_P1;PMS_P2;Temp;Humidity;BMP_temperature;BMP_pressure;BME280_temperature;BME280_humidity;BME280_pressure;Samples;Min_cycle;Max_cycle;Signal;HPM_P1;HPM_P2
2021/09/10 00:00:26;;;;;;;10.95;7.38;;;18.90;84.20;;;;;;5031007;28;20210;-68
2021/09/10 00:02:53;;;;;;;9.35;7.65;;;18.90;84.60;;;;;;5031696;28;20216;-69
2021/09/10 00:05:19;;;;;;;11.27;8.13;;;18.90;85.00;;;;;;5031321;28;20206;-68
2021/09/10 00:07:47;;;;;;;9.48;7.68;;;18.80;85.20;;;;;;5030977;28;20209;-68
2021/09/10 00:10:14;;;;;;;10.43;7.68;;;18.70;85.40;;;;;;5031487;28;20240;-68
2021/09/10 00:12:41;;;;;;;12.00;8.43;;;18.70;85.80;;;;;;5031283;28;20203;-68
2021/09/10 00:15:08;;;;;;;11.13;8.38;;;18.60;85.90;;;;;;5031056;28;20202;-68
2021/09/10 00:17:35;;;;;;;10.05;7.47;;;18.60;86.30;;;;;;5030889;28;20217;-69
2021/09/10 00:20:02;;;;;;;11.45;8.05;;;18.50;86.30;;;;;;5030832;28;20214;-68
2021/09/10 00:22:29;;;;;;;9.98;7.72;;;18.50;86.70;;;;;;5031203;28;20210;-68
2021/09/10 00:24:57;;;;;;;10.30;7.88;;;18.40;87.00;;;;;;5031608;28;20599;-68
2021/09/10 00:27:23;;;;;;;10.07;8.60;;;18.40;87.30;;;;;;5031480;28;20663;-68
2021/09/10 00:29:50;;;;;;;12.93;8.13;;;18.40;87.70;;;;;;5030910;28;20229;-69
2021/09/10 00:32:17;;;;;;;11.90;8.53;;;18.30;87.90;;;;;;5035484;28;20214;-69
2021/09/10 00:34:44;;;;;;;10.48;8.18;;;18.30;88.20;;;;;;5029879;28;20213;-68
2021/09/10 00:37:10;;;;;;;10.60;8.40;;;18.20;88.50;;;;;;5028821;28;20227;-68
2021/09/10 00:39:38;;;;;;;9.85;7.78;;;18.20;88.80;;;;;;5031461;28;20202;-69
2021/09/10 00:42:07;;;;;;;12.40;8.38;;;18.20;89.10;;;;;;5035383;28;20206;-67
2021/09/10 00:44:33;;;;;;;12.02;8.88;;;18.10;89.30;;;;;;5034828;28;20214;-69
2021/09/10 00:47:00;;;;;;;12.63;8.05;;;18.10;89.70;;;;;;5035227;28;20569;-69
2021/09/10 00:49:27;;;;;;;10.20;8.23;;;18.10;89.90;;;;;;5034888;28;20211;-69
2021/09/10 00:51:54;;;;;;;12.15;8.65;;;18.00;90.00;;;;;;5034320;28;20656;-68
2021/09/10 00:54:21;;;;;;;13.70;9.73;;;18.00;90.20;;;;;;5035049;28;20546;-69
2021/09/10 00:56:48;;;;;;;10.52;8.35;;;18.00;90.30;;;;;;5034484;28;20214;-68
2021/09/10 00:59:16;;;;;;;15.07;8.77;;;17.90;90.40;;;;;;5034375;28;20207;-68
2021/09/10 01:01:43;;;;;;;11.33;8.57;;;17.90;90.50;;;;;;5034624;28;20218;-68
2021/09/10 01:04:10;;;;;;;10.73;8.70;;;17.90;90.70;;;;;;5034827;28;20206;-68
2021/09/10 01:06:37;;;;;;;11.67;9.07;;;17.80;90.80;;;;;;5033651;28;20245;-68
2021/09/10 01:09:06;;;;;;;10.67;8.50;;;17.80;90.90;;;;;;5034567;28;20588;-68
2021/09/10 01:11:34;;;;;;;12.43;8.38;;;17.70;91.00;;;;;;5034164;28;20222;-69
2021/09/10 01:14:01;;;;;;;10.63;8.07;;;17.80;91.20;;;;;;5033948;28;20218;-68
2021/09/10 01:16:29;;;;;;;12.50;8.57;;;17.70;91.30;;;;;;5034022;28;20559;-68
2021/09/10 01:18:56;;;;;;;13.63;9.13;;;17.80;91.40;;;;;;5034272;28;20218;-69
2021/09/10 01:21:23;;;;;;;10.70;8.63;;;17.70;91.40;;;;;;5033952;28;20250;-69
2021/09/10 01:23:50;;;;;;;9.83;7.80;;;17.60;91.50;;;;;;5034066;28;20222;-69
2021/09/10 01:26:18;;;;;;;13.37;8.37;;;17.70;91.60;;;;;;5033232;28;20217;-68
2021/09/10 01:28:45;;;;;;;12.20;9.60;;;17.70;91.70;;;;;;5034323;28;20215;-68
2021/09/10 01:31:12;;;;;;;14.37;8.97;;;17.70;91.70;;;;;;5034434;28;20226;-68
2021/09/10 01:33:38;;;;;;;10.23;7.97;;;17.70;91.80;;;;;;5033805;28;20215;-68
2021/09/10 01:36:08;;;;;;;14.27;8.13;;;17.70;91.90;;;;;;5033516;28;20231;-68
2021/09/10 01:38:34;;;;;;;11.68;8.20;;;17.60;91.90;;;;;;5034108;28;20584;-68
2021/09/10 01:41:01;;;;;;;12.65;8.50;;;17.60;92.00;;;;;;5033571;28;20656;-68
2021/09/10 01:43:29;;;;;;;12.97;8.00;;;17.60;92.10;;;;;;5033526;28;20198;-67
2021/09/10 01:45:56;;;;;;;13.93;8.63;;;17.60;92.10;;;;;;5034023;28;20214;-68
2021/09/10 01:48:23;;;;;;;11.80;8.83;;;17.60;92.10;;;;;;5033139;28;20210;-67
2021/09/10 01:50:50;;;;;;;9.97;7.90;;;17.60;92.40;;;;;;5039388;28;20229;-68
2021/09/10 01:53:17;;;;;;;10.27;7.63;;;17.60;92.10;;;;;;5041120;28;20546;-67
2021/09/10 01:55:44;;;;;;;12.10;7.63;;;17.60;92.20;;;;;;5033091;28;20202;-69
2021/09/10 01:58:11;;;;;;;10.23;8.40;;;17.60;92.20;;;;;;5033335;28;20217;-68
2021/09/10 02:00:39;;;;;;;9.77;7.70;;;17.50;92.10;;;;;;5032985;28;20341;-68
2021/09/10 02:03:06;;;;;;;12.10;8.80;;;17.60;92.10;;;;;;5033106;28;20416;-68
2021/09/10 02:05:33;;;;;;;10.87;8.23;;;17.50;92.10;;;;;;5032999;28;20293;-68
2021/09/10 02:08:00;;;;;;;10.40;8.17;;;17.50;92.10;;;;;;5033643;28;20213;-68
2021/09/10 02:10:26;;;;;;;14.77;8.38;;;17.40;92.10;;;;;;5033150;28;20710;-68
2021/09/10 02:12:53;;;;;;;12.03;8.23;;;17.40;92.00;;;;;;5027227;28;20203;-68
2021/09/10 02:15:20;;;;;;;9.07;7.67;;;17.40;92.00;;;;;;5025012;28;20253;-68
2021/09/10 02:17:48;;;;;;;12.23;7.90;;;17.40;92.00;;;;;;5032821;28;20207;-68
2021/09/10 02:20:15;;;;;;;12.73;7.70;;;17.40;92.10;;;;;;5033185;28;20198;-69
2021/09/10 02:22:44;;;;;;;10.97;8.87;;;17.40;92.20;;;;;;5033066;28;20207;-68
2021/09/10 02:25:11;;;;;;;11.07;8.07;;;17.40;92.20;;;;;;5032762;28;20687;-69
2021/09/10 02:27:38;;;;;;;13.43;8.30;;;17.30;92.20;;;;;;5032773;28;20878;-68
2021/09/10 02:30:05;;;;;;;9.33;7.53;;;17.30;92.30;;;;;;5033425;28;20206;-68
2021/09/10 02:32:32;;;;;;;11.70;8.27;;;17.30;92.30;;;;;;5033115;28;20211;-68
2021/09/10 02:35:00;;;;;;;10.40;7.57;;;17.30;92.20;;;;;;5032604;28;20207;-68
2021/09/10 02:37:27;;;;;;;10.60;7.83;;;17.30;92.20;;;;;;5031176;28;20758;-68
2021/09/10 02:39:54;;;;;;;12.43;8.10;;;17.30;92.10;;;;;;5029280;28;20206;-68
2021/09/10 02:42:20;;;;;;;12.93;8.10;;;17.20;92.00;;;;;;5015362;28;20572;-68
2021/09/10 02:44:47;;;;;;;9.30;7.67;;;17.20;92.00;;;;;;5032305;28;20570;-68
2021/09/10 02:47:14;;;;;;;11.93;8.77;;;17.30;92.00;;;;;;5033067;28;20652;-68
2021/09/10 02:49:41;;;;;;;11.87;7.57;;;17.30;92.10;;;;;;5033089;28;20218;-68
2021/09/10 02:52:09;;;;;;;10.60;7.67;;;17.30;92.20;;;;;;5032725;28;20238;-69
2021/09/10 02:54:36;;;;;;;14.30;8.77;;;17.30;92.20;;;;;;5032553;28;20214;-68
2021/09/10 02:57:03;;;;;;;11.57;8.13;;;17.30;92.10;;;;;;5041118;28;20211;-68
2021/09/10 02:59:30;;;;;;;12.40;7.83;;;17.20;92.10;;;;;;5032244;28;20210;-68
2021/09/10 03:01:56;;;;;;;10.97;7.50;;;17.30;92.20;;;;;;5032638;28;20648;-69
2021/09/10 03:04:23;;;;;;;12.37;7.90;;;17.20;92.10;;;;;;5032342;28;20564;-69
2021/09/10 03:06:50;;;;;;;11.53;7.60;;;17.20;92.00;;;;;;5032682;28;20797;-68
2021/09/10 03:09:18;;;;;;;10.40;7.83;;;17.20;91.90;;;;;;5031829;28;20210;-69
2021/09/10 03:11:45;;;;;;;9.90;7.73;;;17.20;91.90;;;;;;5032772;28;20234;-69
2021/09/10 03:14:12;;;;;;;11.43;7.83;;;17.20;91.90;;;;;;5030821;28;20210;-69
2021/09/10 03:16:38;;;;;;;10.87;7.57;;;17.20;91.90;;;;;;5031406;28;20207;-69
2021/09/10 03:19:05;;;;;;;12.13;8.03;;;17.20;91.80;;;;;;5032541;28;20215;-69
2021/09/10 03:21:32;;;;;;;13.10;8.20;;;17.30;91.80;;;;;;5032667;28;20203;-69
2021/09/10 03:23:58;;;;;;;11.40;7.83;;;17.20;91.80;;;;;;5032074;28;20581;-68
2021/09/10 03:26:27;;;;;;;11.03;8.40;;;17.20;91.90;;;;;;5031475;28;20210;-68
2021/09/10 03:28:53;;;;;;;10.43;8.10;;;17.20;91.90;;;;;;5032393;28;20232;-68
2021/09/10 03:31:20;;;;;;;12.63;8.77;;;17.20;92.00;;;;;;5032081;28;20553;-68
2021/09/10 03:33:47;;;;;;;15.20;7.77;;;17.20;92.20;;;;;;5030840;28;20222;-68
2021/09/10 03:36:13;;;;;;;11.27;8.27;;;17.20;92.30;;;;;;5033680;28;20230;-68
2021/09/10 03:38:40;;;;;;;10.17;7.63;;;17.10;92.40;;;;;;5027398;28;20250;-68
2021/09/10 03:41:07;;;;;;;13.57;8.30;;;17.00;92.50;;;;;;5031242;28;20198;-69
2021/09/10 03:43:36;;;;;;;11.30;8.37;;;17.10;92.60;;;;;;5031325;28;20214;-68
2021/09/10 03:46:02;;;;;;;15.13;8.73;;;17.00;92.70;;;;;;5032114;28;20237;-68
2021/09/10 03:48:29;;;;;;;12.47;8.93;;;17.00;92.80;;;;;;5031495;28;20214;-68
2021/09/10 03:50:56;;;;;;;11.53;8.27;;;16.90;93.00;;;;;;5032177;28;20233;-68
2021/09/10 03:53:23;;;;;;;12.63;8.47;;;16.90;93.20;;;;;;5030926;28;20569;-68
2021/09/10 03:55:49;;;;;;;12.27;8.93;;;16.90;93.20;;;;;;5031197;28;20206;-68
2021/09/10 03:58:16;;;;;;;14.00;9.97;;;16.80;93.40;;;;;;5031764;28;20210;-68
2021/09/10 04:00:44;;;;;;;13.90;9.13;;;16.80;93.40;;;;;;5031863;28;20563;-68
2021/09/10 04:03:11;;;;;;;14.20;9.60;;;16.80;93.40;;;;;;5031869;28;20647;-68
2021/09/10 04:05:38;;;;;;;13.17;8.80;;;16.80;93.50;;;;;;5031493;28;20246;-69
2021/09/10 04:08:05;;;;;;;11.93;7.23;;;16.70;93.50;;;;;;5031398;28;20512;-67
2021/09/10 04:10:31;;;;;;;12.23;8.67;;;16.70;93.50;;;;;;5030661;28;20211;-68
2021/09/10 04:12:58;;;;;;;11.00;8.13;;;16.70;93.30;;;;;;5032716;28;20199;-68
2021/09/10 04:15:26;;;;;;;16.90;8.43;;;16.70;93.20;;;;;;5031635;28;20207;-69
2021/09/10 04:17:54;;;;;;;13.67;7.23;;;16.70;93.20;;;;;;5031183;28;20214;-69
2021/09/10 04:20:21;;;;;;;15.27;8.43;;;16.70;93.10;;;;;;5030526;28;20589;-68
2021/09/10 04:22:48;;;;;;;12.03;8.70;;;16.70;93.00;;;;;;5030605;28;20213;-69
2021/09/10 04:25:14;;;;;;;12.33;9.00;;;16.80;93.10;;;;;;5031363;28;20203;-69
2021/09/10 04:27:41;;;;;;;13.40;8.53;;;16.70;93.10;;;;;;5031353;28;20229;-68
2021/09/10 04:30:09;;;;;;;14.83;8.70;;;16.80;93.10;;;;;;5031390;28;20636;-67
2021/09/10 04:32:37;;;;;;;16.50;8.73;;;16.80;93.20;;;;;;5030969;28;20597;-68
2021/09/10 04:35:06;;;;;;;10.93;7.70;;;16.80;93.10;;;;;;5017126;28;20256;-68
2021/09/10 04:37:33;;;;;;;13.77;8.63;;;16.80;93.20;;;;;;5024042;28;20231;-67
2021/09/10 04:40:00;;;;;;;13.03;9.20;;;16.80;93.10;;;;;;5030440;28;20213;-68
2021/09/10 04:42:27;;;;;;;17.87;8.50;;;16.80;93.10;;;;;;5030892;28;20593;-68
2021/09/10 04:44:54;;;;;;;13.00;7.80;;;16.90;93.20;;;;;;5031282;28;20213;-68
2021/09/10 04:47:21;;;;;;;12.87;8.20;;;16.90;93.00;;;;;;5031241;28;20217;-68
2021/09/10 04:49:48;;;;;;;12.63;9.17;;;16.90;93.00;;;;;;5031183;28;20207;-69
2021/09/10 04:52:16;;;;;;;14.57;8.83;;;17.00;93.10;;;;;;5030604;28;20219;-68
2021/09/10 04:54:43;;;;;;;14.27;8.33;;;17.00;93.00;;;;;;5030888;28;20276;-68
2021/09/10 04:57:09;;;;;;;11.87;8.43;;;17.00;93.20;;;;;;5031401;28;20218;-67
2021/09/10 04:59:36;;;;;;;16.10;8.37;;;17.00;93.10;;;;;;5030795;28;20218;-68
2021/09/10 05:02:03;;;;;;;13.47;8.57;;;17.00;93.10;;;;;;5031160;28;20580;-68
2021/09/10 05:04:30;;;;;;;10.20;7.77;;;17.00;93.00;;;;;;5031362;28;20211;-68
2021/09/10 05:06:57;;;;;;;12.43;8.43;;;17.00;92.80;;;;;;5030282;28;20713;-68
2021/09/10 05:09:25;;;;;;;13.63;8.07;;;17.00;92.80;;;;;;5031278;28;20206;-70
2021/09/10 05:11:52;;;;;;;12.50;7.87;;;17.00;92.80;;;;;;5041538;28;20229;-69
2021/09/10 05:14:19;;;;;;;13.83;8.60;;;17.00;92.80;;;;;;5033020;28;20678;-68
2021/09/10 05:16:46;;;;;;;10.87;8.53;;;17.00;92.80;;;;;;5029847;28;20218;-68
2021/09/10 05:19:13;;;;;;;14.90;8.80;;;17.10;93.00;;;;;;5030457;28;20688;-68
2021/09/10 05:21:40;;;;;;;11.67;8.57;;;17.00;93.20;;;;;;5030781;28;20235;-68
2021/09/10 05:24:07;;;;;;;15.83;9.37;;;17.00;93.20;;;;;;5033644;28;20588;-69
2021/09/10 05:26:35;;;;;;;15.20;9.17;;;17.00;93.20;;;;;;5034385;28;20237;-69
2021/09/10 05:29:02;;;;;;;18.17;9.33;;;17.00;93.30;;;;;;5034013;28;20213;-68
2021/09/10 05:31:29;;;;;;;11.43;9.00;;;17.00;93.50;;;;;;5033371;28;20241;-69
2021/09/10 05:33:56;;;;;;;14.73;9.50;;;17.00;93.50;;;;;;5031800;28;20663;-69
2021/09/10 05:36:23;;;;;;;16.53;9.57;;;17.10;93.40;;;;;;5027772;28;20226;-68
2021/09/10 05:38:50;;;;;;;15.70;9.63;;;17.00;93.60;;;;;;5022668;28;20206;-69
2021/09/10 05:41:17;;;;;;;15.53;9.00;;;17.00;93.60;;;;;;5031429;28;20206;-69
2021/09/10 05:43:45;;;;;;;13.33;9.30;;;17.00;93.60;;;;;;5027941;28;20226;-69
2021/09/10 05:46:12;;;;;;;12.87;9.63;;;17.00;93.70;;;;;;5031678;28;20211;-69
2021/09/10 05:48:39;;;;;;;18.40;9.33;;;17.00;93.70;;;;;;5031193;28;20226;-69
2021/09/10 05:51:08;;;;;;;15.83;9.90;;;17.00;93.90;;;;;;5030596;28;20587;-67
2021/09/10 05:53:34;;;;;;;12.73;8.67;;;17.10;93.80;;;;;;5022177;28;20258;-68
2021/09/10 05:56:01;;;;;;;14.50;9.93;;;17.10;93.90;;;;;;5028068;28;20207;-68
2021/09/10 05:58:28;;;;;;;11.40;8.00;;;17.20;93.80;;;;;;5028364;28;20636;-68
2021/09/10 06:00:56;;;;;;;12.07;8.90;;;17.30;93.70;;;;;;5032705;28;20213;-69
2021/09/10 06:03:23;;;;;;;13.70;9.43;;;17.30;93.70;;;;;;5033062;28;20629;-68
2021/09/10 06:05:49;;;;;;;12.75;9.00;;;17.40;93.50;;;;;;5020219;28;20243;-69
2021/09/10 06:08:16;;;;;;;12.60;8.50;;;17.50;93.40;;;;;;5023738;28;20208;-68
2021/09/10 06:10:45;;;;;;;13.73;8.40;;;17.50;93.40;;;;;;5029158;28;20217;-68
2021/09/10 06:13:12;;;;;;;12.07;9.10;;;17.60;93.30;;;;;;5024915;28;20231;-68
2021/09/10 06:15:39;;;;;;;12.80;8.57;;;17.70;93.20;;;;;;5030316;28;20230;-67
2021/09/10 06:18:07;;;;;;;16.70;8.80;;;17.80;93.20;;;;;;5032400;28;20210;-68
2021/09/10 06:20:34;;;;;;;16.23;8.90;;;18.10;93.30;;;;;;5030682;28;20211;-69
2021/09/10 06:23:01;;;;;;;15.75;8.35;;;18.50;92.60;;;;;;5027341;28;20222;-68
2021/09/10 06:25:28;;;;;;;16.92;8.55;;;18.70;91.80;;;;;;5024785;28;20238;-68
2021/09/10 06:27:55;;;;;;;15.80;8.40;;;18.80;91.50;;;;;;5030217;28;20651;-68
2021/09/10 06:30:21;;;;;;;13.93;8.20;;;18.80;91.40;;;;;;5030956;28;20682;-68
2021/09/10 06:32:48;;;;;;;10.50;7.73;;;18.80;91.30;;;;;;5034506;28;20222;-69
2021/09/10 06:35:16;;;;;;;12.13;8.75;;;18.80;91.30;;;;;;5015441;28;20295;-68
2021/09/10 06:37:43;;;;;;;14.40;8.27;;;18.80;91.10;;;;;;5026933;28;20239;-69
2021/09/10 06:40:11;;;;;;;11.93;8.35;;;18.80;91.00;;;;;;5022119;28;20202;-68
2021/09/10 06:42:39;;;;;;;20.70;11.93;;;18.80;91.20;;;;;;5025835;28;20203;-69
2021/09/10 06:45:07;;;;;;;11.95;8.43;;;18.90;91.20;;;;;;5029373;28;20245;-67
2021/09/10 06:47:34;;;;;;;20.50;11.85;;;18.90;91.30;;;;;;5025507;28;20222;-67
2021/09/10 06:50:02;;;;;;;22.20;14.07;;;19.00;91.10;;;;;;5021821;28;20215;-68
2021/09/10 06:52:30;;;;;;;14.80;8.55;;;19.00;91.20;;;;;;5045458;28;20226;-66
2021/09/10 06:54:57;;;;;;;16.83;10.30;;;19.10;91.10;;;;;;5031983;28;20199;-67
2021/09/10 06:57:27;;;;;;;15.43;10.10;;;19.30;91.00;;;;;;5032144;28;20203;-67
2021/09/10 06:59:54;;;;;;;12.50;8.07;;;19.30;91.00;;;;;;5032292;28;20628;-66
2021/09/10 07:02:21;;;;;;;14.10;9.40;;;19.40;90.70;;;;;;5032298;28;20207;-67
2021/09/10 07:04:48;;;;;;;13.95;8.57;;;19.40;90.50;;;;;;5030660;28;20203;-66
2021/09/10 07:07:14;;;;;;;15.32;8.75;;;19.50;90.60;;;;;;5029954;28;20231;-68
2021/09/10 07:09:42;;;;;;;12.50;7.13;;;19.60;90.70;;;;;;5027423;28;20207;-68
2021/09/10 07:12:10;;;;;;;12.23;7.78;;;19.70;90.40;;;;;;5031574;28;20317;-67
2021/09/10 07:14:37;;;;;;;12.15;6.88;;;19.80;90.30;;;;;;5027725;28;20211;-67
2021/09/10 07:17:04;;;;;;;11.27;7.25;;;19.80;90.10;;;;;;5024428;28;20205;-67
2021/09/10 07:19:31;;;;;;;10.68;7.45;;;19.90;89.80;;;;;;5028774;28;20214;-67
2021/09/10 07:21:58;;;;;;;15.80;8.10;;;19.90;89.50;;;;;;5031419;28;20210;-67
2021/09/10 07:24:24;;;;;;;15.98;8.25;;;20.00;89.90;;;;;;5027813;28;20214;-68
2021/09/10 07:26:52;;;;;;;11.25;7.60;;;20.00;90.20;;;;;;5016433;28;20203;-68
2021/09/10 07:29:20;;;;;;;13.30;7.03;;;20.10;90.00;;;;;;5026112;28;20292;-68
2021/09/10 07:31:47;;;;;;;11.48;7.20;;;20.20;89.70;;;;;;5029508;28;20312;-67
2021/09/10 07:34:13;;;;;;;12.65;7.97;;;20.40;89.70;;;;;;5030741;28;20279;-68
2021/09/10 07:36:41;;;;;;;15.20;7.78;;;20.60;89.40;;;;;;5029082;28;20235;-68
2021/09/10 07:39:07;;;;;;;11.52;7.70;;;20.70;88.60;;;;;;5022873;28;20586;-68
2021/09/10 07:41:34;;;;;;;13.00;8.23;;;20.80;88.00;;;;;;5015977;28;20317;-68
2021/09/10 07:44:02;;;;;;;14.25;6.78;;;20.90;88.10;;;;;;5023841;28;20213;-67
2021/09/10 07:46:29;;;;;;;14.25;7.50;;;21.10;87.70;;;;;;5018332;28;20211;-67
2021/09/10 07:48:55;;;;;;;14.48;8.50;;;21.20;87.60;;;;;;5036236;28;20202;-67
2021/09/10 07:51:22;;;;;;;14.70;8.13;;;21.40;86.90;;;;;;5030273;28;20219;-68
2021/09/10 07:53:49;;;;;;;11.27;7.50;;;21.60;86.90;;;;;;5029767;28;20226;-67
2021/09/10 07:56:16;;;;;;;12.50;6.70;;;21.80;86.10;;;;;;5019566;28;20207;-67
2021/09/10 07:58:42;;;;;;;14.23;7.75;;;21.90;85.80;;;;;;5029888;28;20539;-66
2021/09/10 08:01:10;;;;;;;10.57;6.30;;;21.90;84.80;;;;;;5025601;28;20211;-66
2021/09/10 08:03:37;;;;;;;15.90;7.82;;;22.00;84.50;;;;;;5030492;28;20195;-66
2021/09/10 08:06:04;;;;;;;13.95;7.68;;;21.90;84.60;;;;;;5030780;28;20595;-67
2021/09/10 08:08:31;;;;;;;10.85;6.78;;;22.00;84.50;;;;;;5030841;28;20587;-67
2021/09/10 08:10:58;;;;;;;12.02;6.95;;;22.10;84.70;;;;;;5029512;28;20211;-68
2021/09/10 08:13:25;;;;;;;15.10;6.95;;;22.30;84.20;;;;;;5030490;28;20223;-68
2021/09/10 08:15:51;;;;;;;11.43;7.10;;;22.40;83.60;;;;;;5021350;28;20215;-67
2021/09/10 08:18:19;;;;;;;9.85;7.22;;;22.40;83.10;;;;;;5025352;28;20203;-68
2021/09/10 08:20:46;;;;;;;10.13;7.28;;;22.50;83.30;;;;;;5027189;28;20210;-67
2021/09/10 08:23:13;;;;;;;14.82;6.80;;;22.60;82.90;;;;;;5025096;28;20564;-70
2021/09/10 08:25:40;;;;;;;10.25;6.75;;;22.70;83.00;;;;;;5026690;28;20211;-67
2021/09/10 08:28:06;;;;;;;8.82;6.30;;;22.80;82.10;;;;;;5016876;28;20671;-68
2021/09/10 08:30:33;;;;;;;14.63;6.90;;;22.80;81.60;;;;;;5030178;28;20596;-68
2021/09/10 08:33:00;;;;;;;11.55;6.53;;;22.90;81.60;;;;;;5025688;28;20229;-67
2021/09/10 08:35:28;;;;;;;15.07;6.13;;;23.00;81.60;;;;;;5024395;28;20218;-69
2021/09/10 08:37:57;;;;;;;10.13;6.25;;;23.20;81.10;;;;;;5031901;28;20226;-68
2021/09/10 08:40:23;;;;;;;10.25;5.70;;;23.30;80.60;;;;;;5025978;28;20694;-67
2021/09/10 08:42:50;;;;;;;9.95;6.30;;;23.40;79.60;;;;;;5023020;28;20209;-68
2021/09/10 08:45:18;;;;;;;10.73;6.20;;;23.60;79.40;;;;;;5018526;28;20214;-68
2021/09/10 08:47:45;;;;;;;7.85;5.38;;;23.70;79.20;;;;;;5030158;28;20233;-69
2021/09/10 08:50:12;;;;;;;12.70;5.90;;;23.80;78.20;;;;;;5026362;28;20249;-68
2021/09/10 08:52:41;;;;;;;7.63;5.93;;;24.00;78.80;;;;;;5026681;28;21501;-69
2021/09/10 08:55:09;;;;;;;8.43;5.82;;;24.20;78.00;;;;;;5017435;28;20207;-68
2021/09/10 08:57:36;;;;;;;9.75;6.03;;;24.40;77.60;;;;;;5014722;28;20234;-69
2021/09/10 09:00:06;;;;;;;9.23;5.18;;;24.60;77.00;;;;;;5017001;28;20664;-68
2021/09/10 09:02:32;;;;;;;9.35;5.50;;;24.90;76.30;;;;;;5025500;28;20675;-69
2021/09/10 09:04:59;;;;;;;12.32;6.60;;;25.10;75.80;;;;;;5018162;28;20218;-68
2021/09/10 09:07:27;;;;;;;12.48;5.72;;;25.30;76.30;;;;;;5026828;28;20242;-68
2021/09/10 09:09:58;;;;;;;10.35;6.32;;;25.70;76.40;;;;;;5034240;28;20655;-68
2021/09/10 09:12:29;;;;;;;11.80;5.63;;;26.50;77.50;;;;;;5025064;28;20245;-67
2021/09/10 09:14:57;;;;;;;13.25;6.13;;;28.50;72.90;;;;;;5033320;28;20674;-68
2021/09/10 09:17:27;;;;;;;9.52;5.97;;;30.40;65.50;;;;;;5030092;28;20202;-67
2021/09/10 09:20:27;;;;;;;12.20;5.35;;;32.00;61.20;;;;;;5032068;28;20203;-68
2021/09/10 09:23:00;;;;;;;8.40;5.45;;;33.80;56.00;;;;;;4984256;28;20240;-68
2021/09/10 09:25:30;;;;;;;11.60;5.90;;;34.70;52.80;;;;;;4983996;28;20204;-66
2021/09/10 09:28:17;;;;;;;8.48;4.47;;;35.40;51.10;;;;;;5010060;28;20214;-68
2021/09/10 09:30:44;;;;;;;13.95;4.97;;;36.00;47.60;;;;;;5033190;28;20206;-68
2021/09/10 09:33:14;;;;;;;8.70;4.82;;;36.60;45.80;;;;;;5029965;28;20227;-69
2021/09/10 09:35:41;;;;;;;6.57;4.40;;;36.90;45.10;;;;;;5023880;28;20518;-68
2021/09/10 09:38:17;;;;;;;6.18;4.63;;;36.80;45.00;;;;;;5024860;28;20323;-67
2021/09/10 09:40:46;;;;;;;9.45;5.18;;;36.70;44.50;;;;;;5031594;28;20214;-70
2021/09/10 09:43:16;;;;;;;7.32;5.57;;;36.70;44.30;;;;;;5019645;28;20207;-68
2021/09/10 09:45:45;;;;;;;7.32;5.22;;;36.60;43.80;;;;;;5021867;28;20218;-67
2021/09/10 09:48:13;;;;;;;5.43;4.82;;;36.30;43.70;;;;;;5014460;28;20229;-68
2021/09/10 09:50:41;;;;;;;9.63;4.90;;;36.00;43.70;;;;;;5022387;28;20213;-68
2021/09/10 09:53:08;;;;;;;8.10;4.55;;;35.70;43.80;;;;;;5024610;28;20258;-67
2021/09/10 09:55:35;;;;;;;6.55;4.18;;;35.50;44.00;;;;;;5017152;28;20235;-67
2021/09/10 09:58:06;;;;;;;4.75;4.05;;;35.30;44.30;;;;;;5018749;28;20207;-67
2021/09/10 10:00:34;;;;;;;7.45;4.45;;;35.00;44.80;;;;;;5022982;28;20203;-67
2021/09/10 10:03:02;;;;;;;5.43;4.47;;;34.90;44.70;;;;;;5019787;28;20682;-69
2021/09/10 10:05:30;;;;;;;9.32;4.60;;;34.80;45.50;;;;;;5022904;28;20300;-67
2021/09/10 10:08:03;;;;;;;8.60;5.05;;;34.80;45.30;;;;;;5022480;28;20210;-66
2021/09/10 10:10:35;;;;;;;9.20;4.57;;;34.70;45.40;;;;;;5013564;28;20207;-68
2021/09/10 10:13:07;;;;;;;7.55;3.92;;;34.60;45.00;;;;;;5015806;28;20221;-67
2021/09/10 10:15:42;;;;;;;7.00;4.63;;;34.50;45.20;;;;;;5023627;28;20211;-68
2021/09/10 10:18:09;;;;;;;12.30;4.80;;;34.40;45.00;;;;;;5025935;28;20201;-66
2021/09/10 10:20:49;;;;;;;12.02;4.57;;;34.30;45.10;;;;;;5024158;28;20217;-65
2021/09/10 10:24:05;;;;;;;8.52;4.78;;;34.10;46.10;;;;;;5030894;28;20656;-66
2021/09/10 10:26:40;;;;;;;7.50;3.88;;;34.10;45.90;;;;;;5029617;28;20221;-67
2021/09/10 10:29:11;;;;;;;11.35;4.35;;;33.90;45.90;;;;;;5020717;28;20656;-66
2021/09/10 10:31:58;;;;;;;7.00;4.30;;;33.60;45.70;;;;;;5031147;28;20217;-67
2021/09/10 10:34:25;;;;;;;10.32;4.53;;;33.50;46.20;;;;;;5017561;28;20710;-67
2021/09/10 10:36:52;;;;;;;8.48;4.43;;;33.40;46.50;;;;;;5021626;28;20231;-66
2021/09/10 10:39:26;;;;;;;11.10;4.30;;;33.40;46.60;;;;;;5018501;28;20199;-66
2021/09/10 10:41:56;;;;;;;9.82;4.18;;;33.50;46.20;;;;;;5028714;28;20208;-66
2021/09/10 10:44:49;;;;;;;6.78;4.03;;;33.50;46.10;;;;;;5028955;28;20230;-67
2021/09/10 10:47:19;;;;;;;6.90;4.00;;;33.40;46.00;;;;;;5026749;28;20209;-67
2021/09/10 10:49:48;;;;;;;10.25;4.20;;;33.40;45.60;;;;;;5022494;28;20582;-66
2021/09/10 10:52:32;;;;;;;7.63;4.15;;;33.10;46.00;;;;;;5018243;28;20215;-67
2021/09/10 10:55:24;;;;;;;15.98;4.30;;;33.20;46.00;;;;;;5020583;28;20207;-67
2021/09/10 10:57:52;;;;;;;9.32;4.78;;;33.20;45.80;;;;;;5026535;28;20318;-64
2021/09/10 11:00:51;;;;;;;7.53;4.50;;;33.20;46.20;;;;;;5025798;28;20211;-66
2021/09/10 11:03:37;;;;;;;5.32;4.00;;;33.30;46.10;;;;;;5001857;28;20664;-67
2021/09/10 11:06:38;;;;;;;8.00;4.05;;;33.30;45.30;;;;;;5031196;28;20324;-67
2021/09/10 11:09:10;;;;;;;6.20;4.35;;;33.30;45.10;;;;;;5032031;28;20250;-69
2021/09/10 11:11:37;;;;;;;9.43;4.15;;;33.20;45.60;;;;;;5031238;28;20337;-68
2021/09/10 11:14:08;;;;;;;8.82;4.07;;;33.10;46.00;;;;;;5027250;28;20223;-66
2021/09/10 11:16:36;;;;;;;7.00;3.78;;;33.30;45.70;;;;;;5032081;28;20611;-68
2021/09/10 11:19:03;;;;;;;6.63;4.03;;;33.10;45.90;;;;;;5030732;28;20207;-67
2021/09/10 11:21:31;;;;;;;5.72;3.63;;;33.00;46.30;;;;;;5028590;28;20213;-67
2021/09/10 11:24:11;;;;;;;5.63;3.80;;;33.00;46.60;;;;;;5027678;28;20203;-67
2021/09/10 11:26:38;;;;;;;7.72;3.45;;;33.10;46.00;;;;;;5029855;28;20683;-67
2021/09/10 11:29:09;;;;;;;8.80;4.03;;;33.30;46.10;;;;;;5036079;28;20217;-68
2021/09/10 11:31:37;;;;;;;10.60;3.50;;;33.50;45.50;;;;;;5031761;28;20577;-67
2021/09/10 11:34:04;;;;;;;8.60;4.07;;;33.50;44.40;;;;;;5026260;28;20235;-67
2021/09/10 11:36:31;;;;;;;9.27;3.70;;;33.60;44.40;;;;;;5029013;28;20234;-67
2021/09/10 11:39:04;;;;;;;7.65;3.85;;;33.60;44.50;;;;;;5027517;28;20207;-66
2021/09/10 11:41:31;;;;;;;5.55;3.70;;;33.50;44.40;;;;;;5035800;28;20664;-67
2021/09/10 11:44:09;;;;;;;6.35;3.30;;;33.40;44.20;;;;;;5031660;28;20199;-66
2021/09/10 11:46:37;;;;;;;9.93;3.33;;;33.40;44.00;;;;;;5030712;28;20678;-68
2021/09/10 11:49:04;;;;;;;7.90;3.15;;;33.50;43.70;;;;;;5031510;28;20199;-67
2021/09/10 11:51:40;;;;;;;5.80;3.13;;;33.60;43.60;;;;;;5027124;28;20206;-67
2021/09/10 11:54:16;;;;;;;4.65;3.25;;;33.50;43.10;;;;;;5028853;28;20228;-68
2021/09/10 11:56:45;;;;;;;6.65;3.63;;;33.60;43.10;;;;;;5022077;28;20737;-67
2021/09/10 11:59:21;;;;;;;3.92;2.60;;;33.40;42.60;;;;;;5029783;28;20260;-67
2021/09/10 12:01:49;;;;;;;9.15;3.08;;;33.40;42.60;;;;;;5027737;28;20211;-67
2021/09/10 12:04:28;;;;;;;5.28;3.53;;;33.30;41.50;;;;;;5026598;28;20200;-66
2021/09/10 12:06:58;;;;;;;3.72;2.88;;;33.40;41.60;;;;;;5028843;28;20782;-67
2021/09/10 12:09:27;;;;;;;7.72;2.90;;;33.40;40.90;;;;;;5029545;28;20697;-68
2021/09/10 12:12:16;;;;;;;5.30;3.00;;;33.30;40.90;;;;;;5026490;28;20229;-68
2021/09/10 12:14:47;;;;;;;5.20;3.05;;;33.30;41.40;;;;;;5019045;28;20785;-68
2021/09/10 12:17:21;;;;;;;5.35;2.92;;;33.30;41.70;;;;;;5023329;28;20209;-66
2021/09/10 12:19:57;;;;;;;9.88;3.80;;;33.20;41.40;;;;;;5029174;28;20201;-66
2021/09/10 12:22:32;;;;;;;9.80;2.78;;;33.20;41.30;;;;;;5043086;28;20206;-67
2021/09/10 12:25:35;;;;;;;6.88;2.67;;;33.10;41.10;;;;;;5049802;28;20204;-68
2021/09/10 12:28:36;;;;;;;4.57;2.83;;;33.10;41.20;;;;;;5031785;28;20671;-68
2021/09/10 12:31:07;;;;;;;3.55;2.88;;;33.20;41.70;;;;;;5026100;28;20298;-68
2021/09/10 12:33:37;;;;;;;4.53;2.70;;;33.50;41.60;;;;;;5033352;28;20277;-67
2021/09/10 12:36:08;;;;;;;6.95;3.00;;;33.50;41.10;;;;;;5035044;28;20234;-68
2021/09/10 12:38:37;;;;;;;6.32;2.75;;;33.50;41.20;;;;;;5033653;28;20233;-68
2021/09/10 12:41:04;;;;;;;6.13;2.78;;;33.50;40.50;;;;;;5033743;28;20221;-68
2021/09/10 12:43:31;;;;;;;3.42;2.45;;;33.30;40.30;;;;;;5034930;28;20237;-66
2021/09/10 12:45:58;;;;;;;3.97;2.67;;;33.20;40.80;;;;;;5034677;28;20218;-67
2021/09/10 12:48:26;;;;;;;5.63;2.75;;;33.10;40.40;;;;;;5034368;28;20210;-67